Time;durP1;ratioP1;P1;durP2;ratioP2;P2;SDS_P1;SDS_P2;PMS_P1;PMS_P2;Temp;Humidity;BMP_temperature;BMP_pressure;BME280_temperature;BME280_humidity;BME280_pressure;Samples;Min_cycle;Max_cycle;Signal;HPM_P1;HPM_P2
2024/02/06 00:07:25;;;;;;;405.25;93.93;;;0.70;99.90;;;;;;20684815;28;20068;-40
2024/02/06 00:17:27;;;;;;;300.15;83.97;;;0.70;99.90;;;;;;20683336;28;20076;-41
2024/02/06 00:27:29;;;;;;;156.05;58.33;;;0.90;99.90;;;;;;20678511;28;20076;-40
2024/02/06 00:37:32;;;;;;;147.80;57.53;;;1.00;99.90;;;;;;20674189;28;20092;-43
2024/02/06 00:47:35;;;;;;;170.57;64.13;;;0.60;99.90;;;;;;20680636;28;20065;-41
2024/02/06 00:57:40;;;;;;;106.88;45.17;;;0.50;99.90;;;;;;20674093;28;20506;-40
2024/02/06 01:07:41;;;;;;;101.57;43.22;;;0.00;99.90;;;;;;20679113;28;20742;-40
2024/02/06 01:17:43;;;;;;;118.60;47.13;;;-0.10;99.90;;;;;;20677315;28;20126;-40
2024/02/06 01:27:45;;;;;;;141.93;54.13;;;-0.10;99.90;;;;;;20655897;28;20072;-41
2024/02/06 01:37:47;;;;;;;122.93;47.75;;;0.00;99.90;;;;;;20674560;28;20507;-42
2024/02/06 01:47:49;;;;;;;300.77;78.18;;;0.30;99.90;;;;;;20498473;28;20073;-42
2024/02/06 01:57:54;;;;;;;282.20;73.03;;;0.70;99.90;;;;;;20499744;28;20137;-41
2024/02/06 02:07:56;;;;;;;268.65;83.50;;;0.80;99.90;;;;;;20500237;28;20077;-40
2024/02/06 02:17:58;;;;;;;156.05;59.30;;;0.90;99.90;;;;;;20633254;28;20127;-41
2024/02/06 02:28:01;;;;;;;209.30;69.95;;;0.80;99.90;;;;;;20671811;28;20671;-41
2024/02/06 02:38:04;;;;;;;146.43;55.05;;;0.80;99.90;;;;;;20674378;28;20122;-43
2024/02/06 02:48:06;;;;;;;170.20;56.72;;;0.70;99.90;;;;;;20413218;28;20098;-43
2024/02/06 02:58:08;;;;;;;272.20;73.03;;;0.70;99.90;;;;;;20416860;28;20594;-40
2024/02/06 03:08:13;;;;;;;127.50;48.63;;;0.70;99.90;;;;;;20425937;28;20070;-41
2024/02/06 03:18:15;;;;;;;87.72;37.53;;;0.40;99.90;;;;;;20454047;28;20072;-41
2024/02/06 03:28:17;;;;;;;180.65;61.20;;;0.20;99.90;;;;;;20599252;28;20037;-43
2024/02/06 03:38:22;;;;;;;188.68;52.42;;;0.10;99.90;;;;;;20602689;28;20065;-41
2024/02/06 03:48:24;;;;;;;21.00;8.43;;;0.10;99.90;;;;;;20599932;28;20053;-43
2024/02/06 03:58:26;;;;;;;60.33;27.50;;;-0.20;99.90;;;;;;20603290;28;20130;-40
2024/02/06 04:08:28;;;;;;;56.17;25.55;;;-0.20;99.90;;;;;;20602883;28;20157;-42
2024/02/06 04:18:32;;;;;;;27.65;13.13;;;-0.50;99.90;;;;;;20616710;28;20084;-41
2024/02/06 04:28:34;;;;;;;68.68;28.35;;;-0.90;99.90;;;;;;20680941;28;20095;-40
2024/02/06 04:38:36;;;;;;;107.95;41.38;;;-0.50;99.90;;;;;;20664919;28;20045;-42
2024/02/06 04:48:37;;;;;;;304.35;55.53;;;-0.30;99.90;;;;;;20679174;28;20045;-41
2024/02/06 04:58:39;;;;;;;205.32;53.75;;;0.00;99.90;;;;;;20677968;28;20126;-42
2024/02/06 05:08:41;;;;;;;132.98;48.15;;;0.20;99.90;;;;;;20659926;28;20041;-41
2024/02/06 05:18:43;;;;;;;56.92;22.25;;;0.30;99.90;;;;;;20678827;28;20151;-40
2024/02/06 05:28:45;;;;;;;104.05;39.10;;;-0.40;99.90;;;;;;20676810;28;20129;-42
2024/02/06 05:38:47;;;;;;;99.32;39.42;;;-0.30;99.90;;;;;;20674412;28;20111;-41
2024/02/06 05:48:49;;;;;;;38.15;17.08;;;0.10;99.90;;;;;;20656188;28;20080;-42
2024/02/06 05:58:51;;;;;;;35.78;14.18;;;0.20;99.90;;;;;;20675897;28;21224;-41
2024/02/06 06:08:53;;;;;;;75.30;31.02;;;-0.20;99.90;;;;;;20672783;28;20153;-41
2024/02/06 06:18:54;;;;;;;59.00;24.55;;;0.10;99.90;;;;;;20670111;28;20156;-41
2024/02/06 06:28:56;;;;;;;37.72;17.40;;;0.20;99.90;;;;;;20668398;28;20521;-38
2024/02/06 06:38:58;;;;;;;89.18;35.55;;;0.00;99.90;;;;;;20675059;28;20209;-42
2024/02/06 06:49:03;;;;;;;90.68;37.65;;;0.40;99.90;;;;;;20430837;28;20081;-43
2024/02/06 06:59:08;;;;;;;51.30;22.30;;;0.70;99.90;;;;;;20427140;28;20185;-42
2024/02/06 07:09:10;;;;;;;102.68;38.60;;;0.70;99.90;;;;;;20425506;28;21295;-42
2024/02/06 07:19:12;;;;;;;117.53;45.75;;;0.80;99.90;;;;;;20628731;28;21049;-43
2024/02/06 07:29:13;;;;;;;91.35;38.15;;;1.00;99.90;;;;;;20678494;28;20041;-42
2024/02/06 07:39:16;;;;;;;102.10;40.25;;;1.10;99.90;;;;;;20671161;28;20130;-44
2024/02/06 07:49:18;;;;;;;79.20;36.38;;;1.30;99.90;;;;;;20671829;28;20138;-41
2024/02/06 07:59:22;;;;;;;96.22;41.63;;;1.40;99.90;;;;;;20652536;28;20142;-43
2024/02/06 08:09:24;;;;;;;127.50;46.72;;;1.80;99.90;;;;;;20673040;28;20073;-45
2024/02/06 08:19:26;;;;;;;89.35;39.70;;;2.20;99.90;;;;;;20627737;28;1435852;-42
2024/02/06 08:29:28;;;;;;;91.95;42.13;;;2.40;99.90;;;;;;20678058;28;21052;-41
2024/02/06 08:39:30;;;;;;;82.50;39.30;;;2.70;99.90;;;;;;20653018;28;20092;-42
2024/02/06 08:49:32;;;;;;;83.18;40.28;;;3.10;99.90;;;;;;20670237;28;20479;-45
2024/02/06 08:59:35;;;;;;;85.82;40.35;;;3.60;99.90;;;;;;20674077;28;20076;-43
2024/02/06 09:09:39;;;;;;;87.70;41.38;;;3.70;99.90;;;;;;20673245;28;21129;-42
2024/02/06 09:19:41;;;;;;;82.80;40.58;;;3.80;99.90;;;;;;20670738;28;20080;-44
2024/02/06 09:29:43;;;;;;;81.85;39.40;;;4.40;99.90;;;;;;20670100;28;20065;-42
2024/02/06 09:39:45;;;;;;;72.63;37.00;;;4.90;99.90;;;;;;20493210;28;20167;-43
2024/02/06 09:49:47;;;;;;;75.82;37.60;;;5.20;99.90;;;;;;20493659;28;21021;-47
2024/02/06 09:59:52;;;;;;;66.53;36.35;;;5.90;99.90;;;;;;20329458;28;20180;-42
2024/02/06 10:09:55;;;;;;;71.55;36.67;;;6.80;99.90;;;;;;20454229;28;20081;-43
2024/02/06 10:20:08;;;;;;;69.95;37.83;;;7.70;99.90;;;;;;20489704;28;20073;-45
2024/02/06 10:30:10;;;;;;;67.57;38.50;;;8.20;99.90;;;;;;20633729;28;20696;-43
2024/02/06 10:40:13;;;;;;;67.57;39.15;;;8.80;99.90;;;;;;20659925;28;20095;-44
2024/02/06 10:50:14;;;;;;;70.18;39.58;;;9.00;99.90;;;;;;20662407;28;20065;-45
2024/02/06 11:00:26;;;;;;;63.95;36.30;;;9.20;99.90;;;;;;20663156;28;20122;-43
2024/02/06 11:10:38;;;;;;;67.05;36.75;;;8.90;99.90;;;;;;20664710;28;20198;-43
2024/02/06 11:20:43;;;;;;;67.45;36.45;;;8.90;99.90;;;;;;20667263;28;20057;-44
2024/02/06 11:30:45;;;;;;;68.18;38.78;;;9.40;99.90;;;;;;20680130;28;20171;-43
2024/02/06 11:40:50;;;;;;;66.63;39.33;;;9.50;99.90;;;;;;20680764;28;20041;-43
2024/02/06 11:50:52;;;;;;;64.95;36.65;;;9.20;99.90;;;;;;20677360;28;20045;-43
2024/02/06 12:01:04;;;;;;;65.13;37.92;;;9.60;99.90;;;;;;20679202;28;20824;-45
2024/02/06 12:11:21;;;;;;;60.78;34.17;;;9.70;99.90;;;;;;20423659;28;20081;-43
2024/02/06 12:21:24;;;;;;;64.13;35.72;;;10.00;99.90;;;;;;20421973;28;20073;-43
2024/02/06 12:31:27;;;;;;;64.80;35.72;;;10.50;99.90;;;;;;20422425;28;21004;-43
2024/02/06 12:41:30;;;;;;;63.38;37.08;;;10.60;99.90;;;;;;20620224;28;20091;-42
2024/02/06 12:51:31;;;;;;;66.30;38.67;;;10.30;99.90;;;;;;20676337;28;20040;-42
2024/02/06 13:01:34;;;;;;;71.80;41.13;;;9.70;99.90;;;;;;20672142;28;20106;-41
2024/02/06 13:11:36;;;;;;;73.30;39.47;;;9.50;99.90;;;;;;20674080;28;20142;-42
2024/02/06 13:21:43;;;;;;;75.55;42.97;;;9.10;99.90;;;;;;20673107;28;20084;-41
2024/02/06 13:31:44;;;;;;;80.55;45.80;;;8.60;99.90;;;;;;20654057;28;20439;-41
2024/02/06 13:41:46;;;;;;;82.40;46.33;;;8.30;99.90;;;;;;20651531;28;20073;-41
2024/02/06 13:51:48;;;;;;;84.10;48.05;;;7.90;99.90;;;;;;20669165;28;20128;-42
2024/02/06 14:01:50;;;;;;;90.57;49.85;;;7.50;99.90;;;;;;20670429;28;20060;-42
2024/02/06 14:11:57;;;;;;;93.32;49.88;;;7.20;99.90;;;;;;20670485;28;20193;-43
2024/02/06 14:22:03;;;;;;;91.22;49.88;;;6.80;99.90;;;;;;20665803;28;20080;-41
2024/02/06 14:32:05;;;;;;;95.05;50.45;;;6.50;99.90;;;;;;20667746;28;20060;-42
2024/02/06 14:42:06;;;;;;;89.07;48.67;;;6.60;99.90;;;;;;20665270;28;20098;-41
2024/02/06 14:52:08;;;;;;;95.88;51.03;;;6.50;99.90;;;;;;20665741;28;20552;-40
2024/02/06 15:02:11;;;;;;;89.20;49.60;;;6.60;99.90;;;;;;20676084;28;20065;-42
2024/02/06 15:12:13;;;;;;;103.10;54.50;;;6.30;99.90;;;;;;20684626;28;20166;-43
2024/02/06 15:22:16;;;;;;;98.47;52.05;;;6.10;99.90;;;;;;20678960;28;21169;-41
2024/02/06 15:32:17;;;;;;;101.35;52.72;;;6.00;99.90;;;;;;20680911;28;20189;-41
2024/02/06 15:42:20;;;;;;;110.03;55.78;;;5.80;99.90;;;;;;20677267;28;20064;-43
2024/02/06 15:52:22;;;;;;;102.45;52.35;;;5.60;99.90;;;;;;20679928;28;20104;-44
2024/02/06 16:02:24;;;;;;;116.20;57.40;;;5.20;99.90;;;;;;20679984;28;20037;-42
2024/02/06 16:12:25;;;;;;;116.30;57.13;;;4.80;99.90;;;;;;20673404;28;20037;-41
2024/02/06 16:22:27;;;;;;;119.18;53.03;;;4.30;99.90;;;;;;20676281;28;20053;-41
2024/02/06 16:32:29;;;;;;;111.82;50.55;;;3.60;99.90;;;;;;20680177;28;20693;-42
2024/02/06 16:42:31;;;;;;;123.53;51.38;;;2.90;99.90;;;;;;20681944;28;20111;-40
2024/02/06 16:52:34;;;;;;;136.07;55.08;;;2.40;99.90;;;;;;20661416;28;20090;-40
2024/02/06 17:02:35;;;;;;;138.65;54.92;;;2.20;99.90;;;;;;20423960;28;20074;-41
2024/02/06 17:12:38;;;;;;;115.05;46.67;;;2.00;99.90;;;;;;20424555;28;20106;-41
2024/02/06 17:22:43;;;;;;;142.35;54.92;;;1.80;99.90;;;;;;20422204;28;20552;-40
2024/02/06 17:32:45;;;;;;;132.27;53.00;;;1.80;99.90;;;;;;20558289;28;20167;-44
2024/02/06 17:42:50;;;;;;;126.93;49.08;;;1.70;99.90;;;;;;20597645;28;20041;-41
2024/02/06 17:52:52;;;;;;;133.43;48.95;;;1.60;99.90;;;;;;20594851;28;20041;-40
2024/02/06 18:02:53;;;;;;;168.15;57.67;;;1.50;99.90;;;;;;20595789;28;20131;-41
2024/02/06 18:13:00;;;;;;;157.50;56.03;;;1.90;99.90;;;;;;20590630;28;20065;-41
2024/02/06 18:23:02;;;;;;;132.25;52.33;;;2.20;99.90;;;;;;20643204;28;20076;-40
2024/02/06 18:33:05;;;;;;;115.95;47.90;;;2.30;99.90;;;;;;20676372;28;20114;-41
2024/02/06 18:43:07;;;;;;;95.53;41.90;;;2.40;99.90;;;;;;20688827;28;20543;-42
2024/02/06 18:53:10;;;;;;;97.30;42.92;;;2.50;99.90;;;;;;20430305;28;20134;-45
2024/02/06 19:03:11;;;;;;;102.40;43.05;;;2.70;99.90;;;;;;20410209;28;20726;-41
2024/02/06 19:13:13;;;;;;;84.63;40.38;;;2.80;99.90;;;;;;20431590;28;20181;-41
2024/02/06 19:23:15;;;;;;;81.85;38.22;;;2.90;99.90;;;;;;20609627;28;20092;-41
2024/02/06 19:33:19;;;;;;;80.32;35.90;;;3.00;99.90;;;;;;20682971;28;20171;-42
2024/02/06 19:43:21;;;;;;;68.45;33.08;;;3.00;99.90;;;;;;20683315;28;20152;-43
2024/02/06 19:53:23;;;;;;;75.47;33.30;;;3.10;99.90;;;;;;20683205;28;20072;-42
2024/02/06 20:03:28;;;;;;;66.60;33.40;;;3.20;99.90;;;;;;20680593;28;20465;-41
2024/02/06 20:13:35;;;;;;;69.25;31.83;;;3.20;99.90;;;;;;20681764;28;21168;-41
2024/02/06 20:23:41;;;;;;;64.18;30.08;;;3.30;99.90;;;;;;20675364;28;20456;-41
2024/02/06 20:33:43;;;;;;;67.97;30.58;;;3.30;99.90;;;;;;20682104;28;20072;-42
2024/02/06 20:43:49;;;;;;;63.45;29.33;;;3.30;99.90;;;;;;20679712;28;20130;-43
2024/02/06 20:53:51;;;;;;;64.20;30.52;;;3.30;99.90;;;;;;20678162;28;20134;-42
2024/02/06 21:03:53;;;;;;;61.22;28.83;;;3.30;99.90;;;;;;20673611;28;20072;-43
2024/02/06 21:13:55;;;;;;;61.78;29.05;;;3.30;99.90;;;;;;20655725;28;20069;-41
2024/02/06 21:23:57;;;;;;;62.53;30.90;;;3.40;99.90;;;;;;20669556;28;20090;-43
2024/02/06 21:33:59;;;;;;;65.72;31.25;;;3.30;99.90;;;;;;20673484;28;20139;-45
2024/02/06 21:44:03;;;;;;;66.43;30.67;;;3.30;99.90;;;;;;20642013;28;20440;-41
2024/02/06 21:54:05;;;;;;;66.57;31.00;;;3.30;99.90;;;;;;20673738;28;20764;-41
2024/02/06 22:04:09;;;;;;;64.78;31.48;;;3.30;99.90;;;;;;20673042;28;20037;-41
2024/02/06 22:14:12;;;;;;;75.95;33.05;;;3.30;99.90;;;;;;20674950;28;20522;-41
2024/02/06 22:24:14;;;;;;;68.20;30.70;;;3.30;99.90;;;;;;20672801;28;20057;-44
2024/02/06 22:34:16;;;;;;;70.60;32.60;;;3.30;99.90;;;;;;20673836;28;20087;-41
2024/02/06 22:44:20;;;;;;;65.05;31.67;;;3.30;99.90;;;;;;20654781;28;20049;-42
2024/02/06 22:54:21;;;;;;;72.38;34.33;;;3.30;99.90;;;;;;20673100;28;20045;-41
2024/02/06 23:04:23;;;;;;;75.95;33.97;;;3.40;99.90;;;;;;20672805;28;20072;-42
2024/02/06 23:14:28;;;;;;;84.68;37.40;;;3.40;99.90;;;;;;20671211;28;21105;-41
2024/02/06 23:24:30;;;;;;;83.07;36.75;;;3.40;99.90;;;;;;20677771;28;20107;-40
2024/02/06 23:34:32;;;;;;;84.40;37.10;;;3.40;99.90;;;;;;20684204;28;20041;-41
2024/02/06 23:44:34;;;;;;;90.43;38.97;;;3.30;99.90;;;;;;20684414;28;20123;-42
2024/02/06 23:54:36;;;;;;;84.25;36.53;;;3.30;99.90;;;;;;20685607;28;20210;-41
